sensor_id;sensor_type;location;lat;lon;timestamp;pressure;altitude;pressure_sealevel;temperature;humidity
7832;BME280;3961;42.058;25.586;2023-04-05T00:01:34;63068.47;;;7.59;100.00
7832;BME280;3961;42.058;25.586;2023-04-05T00:04:00;63067.00;;;7.60;100.00
7832;BME280;3961;42.058;25.586;2023-04-05T00:06:28;63072.50;;;7.62;100.00
7832;BME280;3961;42.058;25.586;2023-04-05T00:08:54;63078.50;;;7.70;100.00
7832;BME280;3961;42.058;25.586;2023-04-05T00:11:24;63092.66;;;7.80;100.00
7832;BME280;3961;42.058;25.586;2023-04-05T00:13:50;63080.00;;;7.69;100.00
7832;BME280;3961;42.058;25.586;2023-04-05T00:16:16;63084.28;;;7.75;100.00
7832;BME280;3961;42.058;25.586;2023-04-05T00:18:43;63070.44;;;7.63;100.00
7832;BME280;3961;42.058;25.586;2023-04-05T00:21:20;63060.41;;;7.52;100.00
7832;BME280;3961;42.058;25.586;2023-04-05T00:23:55;63065.84;;;7.59;100.00
7832;BME280;3961;42.058;25.586;2023-04-05T00:26:24;63077.69;;;7.67;100.00
7832;BME280;3961;42.058;25.586;2023-04-05T00:28:50;63055.38;;;7.54;100.00
7832;BME280;3961;42.058;25.586;2023-04-05T00:31:17;63041.34;;;7.39;100.00
7832;BME280;3961;42.058;25.586;2023-04-05T00:33:43;63072.75;;;7.65;100.00
7832;BME280;3961;42.058;25.586;2023-04-05T00:36:13;63054.91;;;7.49;100.00
7832;BME280;3961;42.058;25.586;2023-04-05T00:38:40;63065.28;;;7.58;100.00
7832;BME280;3961;42.058;25.586;2023-04-05T00:41:06;63047.69;;;7.45;100.00
7832;BME280;3961;42.058;25.586;2023-04-05T00:43:32;63049.03;;;7.37;100.00
7832;BME280;3961;42.058;25.586;2023-04-05T00:45:58;63062.38;;;7.56;100.00
7832;BME280;3961;42.058;25.586;2023-04-05T00:48:24;63031.91;;;7.29;100.00
7832;BME280;3961;42.058;25.586;2023-04-05T00:50:51;63031.66;;;7.26;100.00
7832;BME280;3961;42.058;25.586;2023-04-05T00:53:20;63024.75;;;7.20;100.00
7832;BME280;3961;42.058;25.586;2023-04-05T00:55:46;63035.59;;;7.34;100.00
7832;BME280;3961;42.058;25.586;2023-04-05T00:58:16;63058.94;;;7.53;100.00
7832;BME280;3961;42.058;25.586;2023-04-05T01:03:22;63044.56;;;7.40;100.00
7832;BME280;3961;42.058;25.586;2023-04-05T01:06:01;63038.31;;;7.30;100.00
7832;BME280;3961;42.058;25.586;2023-04-05T01:11:09;63019.47;;;7.20;100.00
7832;BME280;3961;42.058;25.586;2023-04-05T01:13:36;63073.66;;;7.63;100.00
7832;BME280;3961;42.058;25.586;2023-04-05T01:16:01;63067.56;;;7.60;100.00
7832;BME280;3961;42.058;25.586;2023-04-05T01:18:27;63079.09;;;7.70;100.00
7832;BME280;3961;42.058;25.586;2023-04-05T01:24:50;63073.56;;;7.68;100.00
7832;BME280;3961;42.058;25.586;2023-04-05T01:27:07;63064.69;;;7.58;100.00
7832;BME280;3961;42.058;25.586;2023-04-05T01:30:05;63065.50;;;7.61;100.00
7832;BME280;3961;42.058;25.586;2023-04-05T01:35:29;63060.66;;;7.54;100.00
7832;BME280;3961;42.058;25.586;2023-04-05T01:38:01;63049.63;;;7.49;100.00
7832;BME280;3961;42.058;25.586;2023-04-05T01:40:29;63027.16;;;7.18;100.00
7832;BME280;3961;42.058;25.586;2023-04-05T01:42:55;63019.91;;;7.14;100.00
7832;BME280;3961;42.058;25.586;2023-04-05T01:45:20;63058.34;;;7.52;100.00
7832;BME280;3961;42.058;25.586;2023-04-05T01:47:46;63069.88;;;7.62;100.00
7832;BME280;3961;42.058;25.586;2023-04-05T01:50:12;63079.66;;;7.71;100.00
7832;BME280;3961;42.058;25.586;2023-04-05T01:52:37;63079.09;;;7.70;100.00
7832;BME280;3961;42.058;25.586;2023-04-05T01:55:03;63046.53;;;7.44;100.00
7832;BME280;3961;42.058;25.586;2023-04-05T01:57:28;63035.44;;;7.27;100.00
7832;BME280;3961;42.058;25.586;2023-04-05T01:59:54;63044.56;;;7.40;100.00
7832;BME280;3961;42.058;25.586;2023-04-05T02:02:20;63022.69;;;7.21;100.00
7832;BME280;3961;42.058;25.586;2023-04-05T02:04:45;63044.91;;;7.38;100.00
7832;BME280;3961;42.058;25.586;2023-04-05T02:07:11;63029.00;;;7.26;100.00
7832;BME280;3961;42.058;25.586;2023-04-05T02:09:36;63013.50;;;7.13;100.00
7832;BME280;3961;42.058;25.586;2023-04-05T02:12:02;63035.59;;;7.34;100.00
7832;BME280;3961;42.058;25.586;2023-04-05T02:14:27;63033.63;;;7.30;100.00
7832;BME280;3961;42.058;25.586;2023-04-05T02:16:53;63050.06;;;7.43;100.00
7832;BME280;3961;42.058;25.586;2023-04-05T02:19:20;63036.25;;;7.30;100.00
7832;BME280;3961;42.058;25.586;2023-04-05T02:21:48;62976.13;;;6.80;100.00
7832;BME280;3961;42.058;25.586;2023-04-05T02:24:14;63016.72;;;7.13;100.00
7832;BME280;3961;42.058;25.586;2023-04-05T02:26:40;62996.22;;;6.97;100.00
7832;BME280;3961;42.058;25.586;2023-04-05T02:29:05;62997.72;;;6.96;100.00
7832;BME280;3961;42.058;25.586;2023-04-05T02:31:30;63001.41;;;7.02;100.00
7832;BME280;3961;42.058;25.586;2023-04-05T02:33:56;63019.22;;;7.18;100.00
7832;BME280;3961;42.058;25.586;2023-04-05T02:36:22;63025.47;;;7.28;100.00
7832;BME280;3961;42.058;25.586;2023-04-05T02:38:48;63030.16;;;7.27;100.00
7832;BME280;3961;42.058;25.586;2023-04-05T02:41:14;62966.00;;;6.73;100.00
7832;BME280;3961;42.058;25.586;2023-04-05T02:43:40;63014.06;;;7.13;100.00
7832;BME280;3961;42.058;25.586;2023-04-05T02:46:05;63024.75;;;7.20;100.00
7832;BME280;3961;42.058;25.586;2023-04-05T02:48:31;63027.38;;;7.20;100.00
7832;BME280;3961;42.058;25.586;2023-04-05T02:50:56;62996.13;;;7.02;100.00
7832;BME280;3961;42.058;25.586;2023-04-05T02:53:22;63019.56;;;7.16;100.00
7832;BME280;3961;42.058;25.586;2023-04-05T02:55:55;63021.19;;;7.22;100.00
7832;BME280;3961;42.058;25.586;2023-04-05T02:58:21;62989.91;;;6.92;100.00
7832;BME280;3961;42.058;25.586;2023-04-05T03:00:48;63002.22;;;7.05;100.00
7832;BME280;3961;42.058;25.586;2023-04-05T03:03:22;62994.84;;;6.94;100.00
7832;BME280;3961;42.058;25.586;2023-04-05T03:05:56;62983.25;;;6.88;100.00
7832;BME280;3961;42.058;25.586;2023-04-05T03:08:23;62986.69;;;6.91;100.00
7832;BME280;3961;42.058;25.586;2023-04-05T03:10:53;62981.28;;;6.84;100.00
7832;BME280;3961;42.058;25.586;2023-04-05T03:13:18;62993.59;;;6.97;100.00
7832;BME280;3961;42.058;25.586;2023-04-05T03:15:44;62997.13;;;6.96;100.00
7832;BME280;3961;42.058;25.586;2023-04-05T03:18:09;63001.66;;;7.04;100.00
7832;BME280;3961;42.058;25.586;2023-04-05T03:20:36;63038.31;;;7.30;100.00
7832;BME280;3961;42.058;25.586;2023-04-05T03:23:06;63013.84;;;7.11;100.00
7832;BME280;3961;42.058;25.586;2023-04-05T03:25:36;63000.50;;;7.03;100.00
7832;BME280;3961;42.058;25.586;2023-04-05T03:28:05;62976.34;;;6.82;100.00
7832;BME280;3961;42.058;25.586;2023-04-05T03:30:39;62985.06;;;6.85;100.00
7832;BME280;3961;42.058;25.586;2023-04-05T03:33:05;63001.50;;;6.97;100.00
7832;BME280;3961;42.058;25.586;2023-04-05T03:35:31;62979.91;;;6.81;100.00
7832;BME280;3961;42.058;25.586;2023-04-05T03:37:57;62987.84;;;6.92;100.00
7832;BME280;3961;42.058;25.586;2023-04-05T03:40:23;62984.16;;;6.87;100.00
7832;BME280;3961;42.058;25.586;2023-04-05T03:42:48;62984.38;;;6.89;100.00
7832;BME280;3961;42.058;25.586;2023-04-05T03:45:14;62964.59;;;6.69;100.00
7832;BME280;3961;42.058;25.586;2023-04-05T03:47:40;63001.06;;;7.04;100.00
7832;BME280;3961;42.058;25.586;2023-04-05T03:50:06;63002.31;;;7.00;100.00
7832;BME280;3961;42.058;25.586;2023-04-05T03:52:32;62983.00;;;6.86;100.00
7832;BME280;3961;42.058;25.586;2023-04-05T03:54:57;62997.13;;;6.96;100.00
7832;BME280;3961;42.058;25.586;2023-04-05T03:57:25;63003.94;;;7.06;100.00
7832;BME280;3961;42.058;25.586;2023-04-05T03:59:52;63005.44;;;7.05;100.00
7832;BME280;3961;42.058;25.586;2023-04-05T04:02:18;62983.47;;;6.91;100.00
7832;BME280;3961;42.058;25.586;2023-04-05T04:04:43;63016.72;;;7.13;100.00
7832;BME280;3961;42.058;25.586;2023-04-05T04:07:08;62989.00;;;6.93;100.00
7832;BME280;3961;42.058;25.586;2023-04-05T04:09:34;63005.78;;;7.03;100.00
7832;BME280;3961;42.058;25.586;2023-04-05T04:12:00;62959.66;;;6.67;100.00
7832;BME280;3961;42.058;25.586;2023-04-05T04:14:25;62994.59;;;6.91;100.00
7832;BME280;3961;42.058;25.586;2023-04-05T04:16:51;63001.50;;;6.97;100.00
7832;BME280;3961;42.058;25.586;2023-04-05T04:19:19;62979.53;;;6.83;100.00
7832;BME280;3961;42.058;25.586;2023-04-05T04:21:45;63003.72;;;7.04;100.00
7832;BME280;3961;42.058;25.586;2023-04-05T04:24:16;63015.81;;;7.15;100.00
7832;BME280;3961;42.058;25.586;2023-04-05T04:26:47;62983.56;;;6.86;100.00
7832;BME280;3961;42.058;25.586;2023-04-05T04:29:13;63012.34;;;7.12;100.00
7832;BME280;3961;42.058;25.586;2023-04-05T04:31:43;63029.00;;;7.26;100.00
7832;BME280;3961;42.058;25.586;2023-04-05T04:34:13;63014.88;;;7.16;100.00
7832;BME280;3961;42.058;25.586;2023-04-05T04:36:42;63017.75;;;7.19;100.00
7832;BME280;3961;42.058;25.586;2023-04-05T04:39:10;63000.50;;;7.03;100.00
7832;BME280;3961;42.058;25.586;2023-04-05T04:41:38;63020.13;;;7.16;100.00
7832;BME280;3961;42.058;25.586;2023-04-05T04:44:11;63015.44;;;7.17;100.00
7832;BME280;3961;42.058;25.586;2023-04-05T04:46:39;63018.66;;;7.17;100.00
7832;BME280;3961;42.058;25.586;2023-04-05T04:49:08;63012.09;;;7.09;100.00
7832;BME280;3961;42.058;25.586;2023-04-05T04:51:37;63005.91;;;7.11;100.00
7832;BME280;3961;42.058;25.586;2023-04-05T04:54:03;63011.19;;;7.11;100.00
7832;BME280;3961;42.058;25.586;2023-04-05T04:56:29;63005.09;;;7.07;100.00
7832;BME280;3961;42.058;25.586;2023-04-05T04:58:55;63008.31;;;7.08;100.00
7832;BME280;3961;42.058;25.586;2023-04-05T05:01:21;63009.22;;;7.06;100.00
7832;BME280;3961;42.058;25.586;2023-04-05T05:03:49;63004.88;;;7.05;100.00
7832;BME280;3961;42.058;25.586;2023-04-05T05:06:16;63019.81;;;7.18;100.00
7832;BME280;3961;42.058;25.586;2023-04-05T05:08:41;63033.03;;;7.30;100.00
7832;BME280;3961;42.058;25.586;2023-04-05T05:11:07;63058.94;;;7.53;100.00
7832;BME280;3961;42.058;25.586;2023-04-05T05:13:33;63058.34;;;7.52;100.00
7832;BME280;3961;42.058;25.586;2023-04-05T05:15:58;63034.69;;;7.36;100.00
7832;BME280;3961;42.058;25.586;2023-04-05T05:18:24;63056.63;;;7.51;100.00
7832;BME280;3961;42.058;25.586;2023-04-05T05:20:50;63088.41;;;7.74;100.00
7832;BME280;3961;42.058;25.586;2023-04-05T05:23:16;63086.47;;;7.82;100.00
7832;BME280;3961;42.058;25.586;2023-04-05T05:25:42;63105.56;;;7.94;100.00
7832;BME280;3961;42.058;25.586;2023-04-05T05:28:08;63099.47;;;7.91;100.00
7832;BME280;3961;42.058;25.586;2023-04-05T05:30:33;63134.09;;;8.17;100.00
7832;BME280;3961;42.058;25.586;2023-04-05T05:32:58;63115.03;;;8.04;100.00
7832;BME280;3961;42.058;25.586;2023-04-05T05:35:26;63156.50;;;8.41;100.00
7832;BME280;3961;42.058;25.586;2023-04-05T05:37:52;63168.00;;;8.51;100.00
7832;BME280;3961;42.058;25.586;2023-04-05T05:40:17;63134.34;;;8.19;100.00
7832;BME280;3961;42.058;25.586;2023-04-05T05:42:43;63164.56;;;8.48;100.00
7832;BME280;3961;42.058;25.586;2023-04-05T05:45:09;63186.31;;;8.60;100.00
7832;BME280;3961;42.058;25.586;2023-04-05T05:47:34;63163.53;;;8.43;100.00
7832;BME280;3961;42.058;25.586;2023-04-05T05:50:00;63178.25;;;8.53;100.00
7832;BME280;3961;42.058;25.586;2023-04-05T05:52:25;63156.28;;;8.38;100.00
7832;BME280;3961;42.058;25.586;2023-04-05T05:54:51;63152.56;;;8.33;100.00
7832;BME280;3961;42.058;25.586;2023-04-05T05:57:17;63142.41;;;8.26;100.00
7832;BME280;3961;42.058;25.586;2023-04-05T05:59:42;63139.88;;;8.22;100.00
7832;BME280;3961;42.058;25.586;2023-04-05T06:02:07;63116.84;;;8.01;100.00
7832;BME280;3961;42.058;25.586;2023-04-05T06:04:33;63103.84;;;7.92;100.00
7832;BME280;3961;42.058;25.586;2023-04-05T06:06:59;63182.44;;;8.64;100.00
7832;BME280;3961;42.058;25.586;2023-04-05T06:09:26;63348.84;;;10.08;100.00
7832;BME280;3961;42.058;25.586;2023-04-05T06:11:53;63280.19;;;9.48;98.50
7832;BME280;3961;42.058;25.586;2023-04-05T06:14:18;63616.81;;;12.41;100.00
7832;BME280;3961;42.058;25.586;2023-04-05T06:16:44;63733.81;;;13.43;95.40
7832;BME280;3961;42.058;25.586;2023-04-05T06:19:10;63540.34;;;11.78;91.92
7832;BME280;3961;42.058;25.586;2023-04-05T06:21:36;63455.72;;;11.02;94.10
7832;BME280;3961;42.058;25.586;2023-04-05T06:24:01;63521.94;;;11.58;96.36
7832;BME280;3961;42.058;25.586;2023-04-05T06:26:27;63550.88;;;11.83;87.78
7832;BME280;3961;42.058;25.586;2023-04-05T06:28:54;63504.25;;;11.44;95.31
7832;BME280;3961;42.058;25.586;2023-04-05T06:31:26;63458.59;;;11.04;93.28
7832;BME280;3961;42.058;25.586;2023-04-05T06:33:52;63445.66;;;10.91;95.92
7832;BME280;3961;42.058;25.586;2023-04-05T06:36:17;63465.88;;;11.08;94.67
7832;BME280;3961;42.058;25.586;2023-04-05T06:38:43;63586.16;;;12.14;92.24
7832;BME280;3961;42.058;25.586;2023-04-05T06:41:08;63668.00;;;12.88;97.50
7832;BME280;3961;42.058;25.586;2023-04-05T06:43:34;63744.47;;;13.55;89.52
7832;BME280;3961;42.058;25.586;2023-04-05T06:45:59;63763.59;;;13.72;92.76
7832;BME280;3961;42.058;25.586;2023-04-05T06:48:26;63671.47;;;12.91;85.96
7832;BME280;3961;42.058;25.586;2023-04-05T06:51:01;63558.63;;;11.92;89.00
7832;BME280;3961;42.058;25.586;2023-04-05T06:53:27;63520.09;;;11.61;91.50
7832;BME280;3961;42.058;25.586;2023-04-05T06:55:54;63469.56;;;11.14;93.22
7832;BME280;3961;42.058;25.586;2023-04-05T06:58:20;63448.44;;;10.98;95.87
7832;BME280;3961;42.058;25.586;2023-04-05T07:00:46;63459.16;;;11.05;94.53
7832;BME280;3961;42.058;25.586;2023-04-05T07:03:11;63458.38;;;11.02;95.79
7832;BME280;3961;42.058;25.586;2023-04-05T07:05:37;63473.28;;;11.20;94.66
7832;BME280;3961;42.058;25.586;2023-04-05T07:08:02;63427.38;;;10.77;91.29
7832;BME280;3961;42.058;25.586;2023-04-05T07:10:28;63435.47;;;10.84;94.04
7832;BME280;3961;42.058;25.586;2023-04-05T07:12:54;63447.38;;;10.92;92.63
7832;BME280;3961;42.058;25.586;2023-04-05T07:15:19;63447.97;;;10.93;91.58
7832;BME280;3961;42.058;25.586;2023-04-05T07:17:45;63430.28;;;10.80;92.33
7832;BME280;3961;42.058;25.586;2023-04-05T07:20:11;63425.22;;;10.70;91.83
7832;BME280;3961;42.058;25.586;2023-04-05T07:22:36;63435.25;;;10.82;92.88
7832;BME280;3961;42.058;25.586;2023-04-05T07:25:02;63422.19;;;10.72;93.50
7832;BME280;3961;42.058;25.586;2023-04-05T07:27:29;63406.38;;;10.56;93.32
7832;BME280;3961;42.058;25.586;2023-04-05T07:29:55;63393.31;;;10.47;94.06
7832;BME280;3961;42.058;25.586;2023-04-05T07:32:20;63397.94;;;10.51;94.97
7832;BME280;3961;42.058;25.586;2023-04-05T07:34:46;63421.41;;;10.69;96.31
7832;BME280;3961;42.058;25.586;2023-04-05T07:37:12;63398.28;;;10.49;92.43
7832;BME280;3961;42.058;25.586;2023-04-05T07:39:38;63386.63;;;10.43;92.30
7832;BME280;3961;42.058;25.586;2023-04-05T07:42:04;63401.41;;;10.54;92.32
7832;BME280;3961;42.058;25.586;2023-04-05T07:44:30;63359.34;;;10.13;92.39
7832;BME280;3961;42.058;25.586;2023-04-05T07:46:55;63393.91;;;10.48;91.58
7832;BME280;3961;42.058;25.586;2023-04-05T07:49:25;63405.44;;;10.58;94.75
7832;BME280;3961;42.058;25.586;2023-04-05T07:51:58;63428.19;;;10.80;91.21
7832;BME280;3961;42.058;25.586;2023-04-05T07:54:23;63406.59;;;10.59;93.34
7832;BME280;3961;42.058;25.586;2023-04-05T07:56:50;63423.91;;;10.74;93.37
7832;BME280;3961;42.058;25.586;2023-04-05T07:59:16;63403.72;;;10.56;92.43
7832;BME280;3961;42.058;25.586;2023-04-05T08:01:41;63414.13;;;10.65;93.76
7832;BME280;3961;42.058;25.586;2023-04-05T08:04:07;63403.47;;;10.54;91.66
7832;BME280;3961;42.058;25.586;2023-04-05T08:06:33;63439.88;;;10.86;92.28
7832;BME280;3961;42.058;25.586;2023-04-05T08:08:58;63469.56;;;11.14;91.78
7832;BME280;3961;42.058;25.586;2023-04-05T08:11:24;63486.34;;;11.29;90.91
7832;BME280;3961;42.058;25.586;2023-04-05T08:13:50;63527.38;;;11.65;90.40
7832;BME280;3961;42.058;25.586;2023-04-05T08:16:17;63539.19;;;11.77;90.06
7832;BME280;3961;42.058;25.586;2023-04-05T08:18:43;63546.81;;;11.80;89.66
7832;BME280;3961;42.058;25.586;2023-04-05T08:21:08;63596.22;;;12.25;89.19
7832;BME280;3961;42.058;25.586;2023-04-05T08:23:34;63574.81;;;12.06;87.89
7832;BME280;3961;42.058;25.586;2023-04-05T08:26:00;63564.06;;;11.99;86.69
7832;BME280;3961;42.058;25.586;2023-04-05T08:28:25;63596.00;;;12.23;87.79
7832;BME280;3961;42.058;25.586;2023-04-05T08:30:54;63569.03;;;12.01;88.16
7832;BME280;3961;42.058;25.586;2023-04-05T08:33:22;63628.41;;;12.51;88.26
7832;BME280;3961;42.058;25.586;2023-04-05T08:35:48;63597.97;;;12.27;88.01
7832;BME280;3961;42.058;25.586;2023-04-05T08:38:13;63623.19;;;12.47;89.01
7832;BME280;3961;42.058;25.586;2023-04-05T08:40:41;63624.34;;;12.48;86.53
7832;BME280;3961;42.058;25.586;2023-04-05T08:45:52;63607.34;;;12.30;86.04
7832;BME280;3961;42.058;25.586;2023-04-05T08:48:18;63526.81;;;11.64;88.28
7832;BME280;3961;42.058;25.586;2023-04-05T08:50:51;63613.34;;;12.38;86.85
7832;BME280;3961;42.058;25.586;2023-04-05T08:53:17;63575.38;;;12.07;86.61
7832;BME280;3961;42.058;25.586;2023-04-05T08:55:43;63622.59;;;12.46;85.16
7832;BME280;3961;42.058;25.586;2023-04-05T08:58:12;63641.03;;;12.67;85.38
7832;BME280;3961;42.058;25.586;2023-04-05T09:00:39;63655.03;;;12.74;84.76
7832;BME280;3961;42.058;25.586;2023-04-05T09:03:07;63649.69;;;12.74;82.68
7832;BME280;3961;42.058;25.586;2023-04-05T09:05:38;63675.53;;;12.95;81.94
7832;BME280;3961;42.058;25.586;2023-04-05T09:08:05;63701.59;;;13.18;82.51
7832;BME280;3961;42.058;25.586;2023-04-05T09:10:31;63638.13;;;12.64;82.71
7832;BME280;3961;42.058;25.586;2023-04-05T09:12:57;63668.69;;;12.84;84.88
7832;BME280;3961;42.058;25.586;2023-04-05T09:15:24;63669.25;;;12.85;84.21
7832;BME280;3961;42.058;25.586;2023-04-05T09:17:51;63627.47;;;12.53;84.49
7832;BME280;3961;42.058;25.586;2023-04-05T09:20:18;63666.38;;;12.82;84.83
7832;BME280;3961;42.058;25.586;2023-04-05T09:22:45;63687.44;;;13.03;85.22
7832;BME280;3961;42.058;25.586;2023-04-05T09:25:15;63657.00;;;12.78;82.73
7832;BME280;3961;42.058;25.586;2023-04-05T09:27:58;63685.94;;;13.04;82.56
7832;BME280;3961;42.058;25.586;2023-04-05T09:30:25;63669.84;;;12.85;82.98
7832;BME280;3961;42.058;25.586;2023-04-05T09:32:53;63675.53;;;12.95;83.94
7832;BME280;3961;42.058;25.586;2023-04-05T09:35:27;63692.06;;;13.07;84.66
7832;BME280;3961;42.058;25.586;2023-04-05T09:37:58;63711.22;;;13.24;84.03
7832;BME280;3961;42.058;25.586;2023-04-05T09:40:45;63731.13;;;13.43;82.06
7832;BME280;3961;42.058;25.586;2023-04-05T09:43:12;63688.38;;;13.01;82.64
7832;BME280;3961;42.058;25.586;2023-04-05T09:45:41;63697.63;;;13.09;84.74
7832;BME280;3961;42.058;25.586;2023-04-05T09:48:07;63745.41;;;13.54;86.66
7832;BME280;3961;42.058;25.586;2023-04-05T09:50:34;63737.53;;;13.49;83.27
7832;BME280;3961;42.058;25.586;2023-04-05T09:53:11;63716.19;;;13.26;85.11
7832;BME280;3961;42.058;25.586;2023-04-05T09:55:40;63666.25;;;12.87;82.09
7832;BME280;3961;42.058;25.586;2023-04-05T09:58:11;63675.06;;;12.90;82.63
7832;BME280;3961;42.058;25.586;2023-04-05T10:00:37;63681.53;;;13.02;82.15
7832;BME280;3961;42.058;25.586;2023-04-05T10:03:03;63704.25;;;13.18;81.30
7832;BME280;3961;42.058;25.586;2023-04-05T10:05:29;63715.50;;;13.30;81.90
7832;BME280;3961;42.058;25.586;2023-04-05T10:07:56;63731.47;;;13.41;82.52
7832;BME280;3961;42.058;25.586;2023-04-05T10:10:23;63700.19;;;13.14;81.33
7832;BME280;3961;42.058;25.586;2023-04-05T10:12:49;63782.84;;;13.84;88.06
7832;BME280;3961;42.058;25.586;2023-04-05T10:15:15;63683.28;;;13.04;81.27
7832;BME280;3961;42.058;25.586;2023-04-05T10:17:55;63694.38;;;13.09;81.46
7832;BME280;3961;42.058;25.586;2023-04-05T10:20:27;63709.72;;;13.25;81.96
7832;BME280;3961;42.058;25.586;2023-04-05T10:28:17;63677.25;;;12.96;83.08
7832;BME280;3961;42.058;25.586;2023-04-05T10:30:50;63658.72;;;12.80;84.54
7832;BME280;3961;42.058;25.586;2023-04-05T10:33:38;63641.72;;;12.63;83.55
7832;BME280;3961;42.058;25.586;2023-04-05T10:38:35;63664.88;;;12.83;81.56
7832;BME280;3961;42.058;25.586;2023-04-05T10:41:09;63578.63;;;12.07;83.60
7832;BME280;3961;42.058;25.586;2023-04-05T10:43:38;63622.03;;;12.45;83.07
7832;BME280;3961;42.058;25.586;2023-04-05T10:46:05;63601.19;;;12.27;84.11
7832;BME280;3961;42.058;25.586;2023-04-05T10:48:46;63597.16;;;12.24;84.33
7832;BME280;3961;42.058;25.586;2023-04-05T10:51:14;63619.72;;;12.43;85.08
7832;BME280;3961;42.058;25.586;2023-04-05T10:53:40;63597.72;;;12.24;84.51
7832;BME280;3961;42.058;25.586;2023-04-05T10:56:07;63592.19;;;12.22;83.86
7832;BME280;3961;42.058;25.586;2023-04-05T10:58:33;63582.69;;;12.11;82.88
7832;BME280;3961;42.058;25.586;2023-04-05T11:01:00;63549.72;;;11.82;84.37
7832;BME280;3961;42.058;25.586;2023-04-05T11:03:49;63540.59;;;11.81;84.26
7832;BME280;3961;42.058;25.586;2023-04-05T11:08:45;63567.31;;;12.00;84.35
7832;BME280;3961;42.058;25.586;2023-04-05T11:11:15;63554.09;;;11.84;84.68
7832;BME280;3961;42.058;25.586;2023-04-05T11:13:55;63565.34;;;11.96;85.64
7832;BME280;3961;42.058;25.586;2023-04-05T11:16:22;63572.16;;;12.06;85.47
7832;BME280;3961;42.058;25.586;2023-04-05T11:18:49;63584.66;;;12.15;84.24
7832;BME280;3961;42.058;25.586;2023-04-05T11:21:23;63565.34;;;11.96;85.22
7832;BME280;3961;42.058;25.586;2023-04-05T11:26:52;63506.31;;;11.44;87.70
7832;BME280;3961;42.058;25.586;2023-04-05T11:29:19;63525.06;;;11.63;90.22
7832;BME280;3961;42.058;25.586;2023-04-05T11:32:11;63511.19;;;11.51;90.82
7832;BME280;3961;42.058;25.586;2023-04-05T11:34:36;63501.94;;;11.42;92.52
7832;BME280;3961;42.058;25.586;2023-04-05T11:37:02;63497.66;;;11.36;92.78
7832;BME280;3961;42.058;25.586;2023-04-05T11:39:28;63505.75;;;11.43;95.45
7832;BME280;3961;42.058;25.586;2023-04-05T11:42:09;63472.22;;;11.14;92.89
7832;BME280;3961;42.058;25.586;2023-04-05T11:44:46;63461.81;;;11.05;97.16
7832;BME280;3961;42.058;25.586;2023-04-05T11:47:15;63462.06;;;11.07;92.01
7832;BME280;3961;42.058;25.586;2023-04-05T11:49:41;63485.75;;;11.28;95.65
7832;BME280;3961;42.058;25.586;2023-04-05T11:52:17;63469.56;;;11.14;97.24
7832;BME280;3961;42.058;25.586;2023-04-05T11:54:43;63505.75;;;11.43;97.62
7832;BME280;3961;42.058;25.586;2023-04-05T11:57:20;63480.91;;;11.22;94.52
7832;BME280;3961;42.058;25.586;2023-04-05T11:59:52;63504.00;;;11.42;94.82
7832;BME280;3961;42.058;25.586;2023-04-05T12:02:18;63523.69;;;11.59;95.38
7832;BME280;3961;42.058;25.586;2023-04-05T12:04:44;63537.91;;;11.69;95.71
7832;BME280;3961;42.058;25.586;2023-04-05T12:07:18;63558.16;;;11.87;93.90
7832;BME280;3961;42.058;25.586;2023-04-05T12:10:04;63536.16;;;11.68;95.02
7832;BME280;3961;42.058;25.586;2023-04-05T12:12:35;63514.66;;;11.54;96.28
7832;BME280;3961;42.058;25.586;2023-04-05T12:15:03;63529.47;;;11.64;91.44
7832;BME280;3961;42.058;25.586;2023-04-05T12:20:11;63546.47;;;11.82;94.66
7832;BME280;3961;42.058;25.586;2023-04-05T12:22:39;63588.56;;;12.11;94.34
7832;BME280;3961;42.058;25.586;2023-04-05T12:25:06;63568.81;;;11.99;92.18
7832;BME280;3961;42.058;25.586;2023-04-05T12:27:32;63540.09;;;11.76;90.61
7832;BME280;3961;42.058;25.586;2023-04-05T12:32:46;63561.97;;;11.88;93.78
7832;BME280;3961;42.058;25.586;2023-04-05T12:37:45;63589.97;;;12.15;92.98
7832;BME280;3961;42.058;25.586;2023-04-05T12:40:12;63621.34;;;12.50;91.36
7832;BME280;3961;42.058;25.586;2023-04-05T12:42:39;63617.88;;;12.47;92.06
7832;BME280;3961;42.058;25.586;2023-04-05T12:45:14;63620.63;;;12.42;92.71
7832;BME280;3961;42.058;25.586;2023-04-05T12:47:55;63605.84;;;12.31;91.38
7832;BME280;3961;42.058;25.586;2023-04-05T12:50:28;63565.44;;;12.03;93.69
7832;BME280;3961;42.058;25.586;2023-04-05T12:55:21;63602.94;;;12.29;93.78
7832;BME280;3961;42.058;25.586;2023-04-05T12:57:51;63558.06;;;11.92;92.91
7832;BME280;3961;42.058;25.586;2023-04-05T13:00:18;63577.13;;;12.08;94.55
7832;BME280;3961;42.058;25.586;2023-04-05T13:02:48;63572.84;;;12.02;93.66
7832;BME280;3961;42.058;25.586;2023-04-05T13:05:16;63557.13;;;11.93;95.13
7832;BME280;3961;42.058;25.586;2023-04-05T13:07:41;63573.66;;;12.05;93.88
7832;BME280;3961;42.058;25.586;2023-04-05T13:10:07;63554.34;;;11.86;96.62
7832;BME280;3961;42.058;25.586;2023-04-05T13:12:33;63542.44;;;11.78;95.91
7832;BME280;3961;42.058;25.586;2023-04-05T13:14:58;63556.22;;;11.95;92.33
7832;BME280;3961;42.058;25.586;2023-04-05T13:17:24;63548.31;;;11.78;94.48
7832;BME280;3961;42.058;25.586;2023-04-05T13:19:49;63539.84;;;11.73;92.50
7832;BME280;3961;42.058;25.586;2023-04-05T13:22:15;63553.53;;;11.83;92.12
7832;BME280;3961;42.058;25.586;2023-04-05T13:24:40;63510.03;;;11.50;93.20
7832;BME280;3961;42.058;25.586;2023-04-05T13:27:06;63537.53;;;11.71;95.51
7832;BME280;3961;42.058;25.586;2023-04-05T13:29:31;63503.91;;;11.47;95.54
7832;BME280;3961;42.058;25.586;2023-04-05T13:31:57;63519.88;;;11.58;92.72
7832;BME280;3961;42.058;25.586;2023-04-05T13:34:22;63510.03;;;11.50;94.78
7832;BME280;3961;42.058;25.586;2023-04-05T13:36:48;63528.88;;;11.64;97.15
7832;BME280;3961;42.058;25.586;2023-04-05T13:39:13;63490.97;;;11.33;93.57
7832;BME280;3961;42.058;25.586;2023-04-05T13:41:39;63508.88;;;11.49;92.81
7832;BME280;3961;42.058;25.586;2023-04-05T13:44:04;63501.94;;;11.42;91.57
7832;BME280;3961;42.058;25.586;2023-04-05T13:46:30;63515.00;;;11.52;91.84
7832;BME280;3961;42.058;25.586;2023-04-05T13:48:55;63524.50;;;11.62;91.66
7832;BME280;3961;42.058;25.586;2023-04-05T13:51:21;63501.34;;;11.42;91.88